Weather at Bodmin Airfield

Public forecast

Using degrees Celsius for public forecast. Weather courtesy of forecast.io.

Closest aviation weather report (METAR) to Bodmin Airfield

Closest report is Newquay Cornwall Airport, 13.1 nm (24.2 km) WSW. Retrieved 2021/02/25 13:20 UTC (0 seconds ago):

EGHQ 251320Z 29014KT 9999 FEW020 10/05 Q1030

Closest aviation forecast (TAF) to Bodmin Airfield

Forecast is more than 12 hours old.

Closest forecast is Plymouth City Airport, 21.9 nm (40.6 km) ESE. Retrieved 2010/07/06 05:57 UTC (11 years ago):

TAF TAF EGHD 060557Z 0606/0618 24006KT 9999 FEW015